Time;durP1;ratioP1;P1;durP2;ratioP2;P2;SDS_P1;SDS_P2;PMS_P1;PMS_P2;Temp;Humidity;BMP_temperature;BMP_pressure;BME280_temperature;BME280_humidity;BME280_pressure;Samples;Min_cycle;Max_cycle;Signal;HPM_P1;HPM_P2
2023/10/27 00:02:25;;;;;;;5.60;2.80;;;;;;;10.73;100.00;154115.75;5028382;28;20456;-76
2023/10/27 00:04:51;;;;;;;3.03;2.63;;;;;;;10.71;100.00;154110.56;5007063;28;21043;-75
2023/10/27 00:07:20;;;;;;;4.50;2.67;;;;;;;10.69;100.00;154104.09;5016796;28;20526;-76
2023/10/27 00:09:46;;;;;;;3.13;2.53;;;;;;;10.64;100.00;154092.47;5008161;28;20453;-75
2023/10/27 00:12:13;;;;;;;3.67;2.37;;;;;;;10.65;100.00;154095.03;5028202;28;20609;-76
2023/10/27 00:14:40;;;;;;;4.33;2.60;;;;;;;10.67;100.00;154100.19;5010865;28;20479;-76
2023/10/27 00:17:06;;;;;;;3.50;2.50;;;;;;;10.65;100.00;154095.03;4995525;28;20444;-76
2023/10/27 00:19:33;;;;;;;3.10;2.30;;;;;;;10.60;100.00;154082.06;5024435;28;20486;-76
2023/10/27 00:21:59;;;;;;;3.13;2.50;;;;;;;10.62;100.00;154085.94;5026983;28;20868;-76
2023/10/27 00:24:27;;;;;;;5.63;2.00;;;;;;;10.60;100.00;154080.78;5010295;28;20483;-76
2023/10/27 00:26:54;;;;;;;3.30;2.43;;;;;;;10.59;100.00;154079.47;5010305;28;20448;-75
2023/10/27 00:29:20;;;;;;;5.03;2.80;;;;;;;10.59;100.00;154078.22;5012737;28;20460;-76
2023/10/27 00:31:47;;;;;;;3.60;2.30;;;;;;;10.55;100.00;154069.13;5028904;28;20443;-76
2023/10/27 00:34:14;;;;;;;3.33;1.80;;;;;;;10.52;100.00;154061.34;5027985;28;20841;-76
2023/10/27 00:36:40;;;;;;;3.27;2.40;;;;;;;10.50;100.00;154056.19;5026138;28;20447;-76
2023/10/27 00:39:07;;;;;;;4.30;2.53;;;;;;;10.49;100.00;154053.59;5025496;28;20860;-76
2023/10/27 00:41:34;;;;;;;4.50;2.10;;;;;;;10.49;100.00;154053.59;5020495;28;20447;-76
2023/10/27 00:44:01;;;;;;;6.20;2.17;;;;;;;10.50;100.00;154054.88;5026690;28;20447;-75
2023/10/27 00:46:28;;;;;;;4.17;2.07;;;;;;;10.50;100.00;154056.19;5025957;28;20448;-75
2023/10/27 00:48:55;;;;;;;3.70;2.27;;;;;;;10.48;100.00;154049.72;5022366;28;20458;-75
2023/10/27 00:51:21;;;;;;;2.70;2.00;;;;;;;10.49;100.00;154052.28;5028111;28;20804;-75
2023/10/27 00:53:48;;;;;;;3.90;2.27;;;;;;;10.48;100.00;154049.72;5009555;28;20507;-75
2023/10/27 00:56:15;;;;;;;2.87;1.90;;;;;;;10.48;100.00;154051.03;5025953;28;20460;-75
2023/10/27 00:58:43;;;;;;;3.80;2.43;;;;;;;10.48;100.00;154049.72;5026491;28;20837;-75
2023/10/27 01:01:11;;;;;;;2.17;1.97;;;;;;;10.48;100.00;154051.03;4996797;28;20441;-76
2023/10/27 01:03:38;;;;;;;4.57;2.27;;;;;;;10.49;100.00;154052.28;5019946;28;20455;-76
2023/10/27 01:06:05;;;;;;;3.70;2.67;;;;;;;10.45;100.00;154041.94;5024857;28;20463;-76
2023/10/27 01:08:31;;;;;;;6.40;2.60;;;;;;;10.39;100.00;154029.00;5009501;28;20799;-76
2023/10/27 01:10:58;;;;;;;4.00;2.57;;;;;;;10.35;100.00;154017.38;5024815;28;20459;-75
2023/10/27 01:13:24;;;;;;;5.57;3.33;;;;;;;10.35;100.00;154018.63;5025723;28;20459;-75
2023/10/27 01:15:52;;;;;;;4.10;2.83;;;;;;;10.35;100.00;154017.38;5005731;28;20554;-76
2023/10/27 01:18:19;;;;;;;4.37;2.63;;;;;;;10.33;100.00;154012.16;5013501;28;20482;-77
2023/10/27 01:20:45;;;;;;;5.00;2.37;;;;;;;10.32;100.00;154010.91;5034883;28;20451;-77
2023/10/27 01:23:13;;;;;;;3.30;1.97;;;;;;;10.32;100.00;154009.59;5023687;28;20485;-77
2023/10/27 01:25:39;;;;;;;3.60;2.03;;;;;;;10.33;100.00;154012.16;5023666;28;20450;-76
2023/10/27 01:28:08;;;;;;;2.83;2.30;;;;;;;10.30;100.00;154005.69;5007198;28;20861;-76
2023/10/27 01:30:35;;;;;;;4.30;2.40;;;;;;;10.28;100.00;153999.22;5025107;28;20470;-76
2023/10/27 01:33:02;;;;;;;2.17;1.97;;;;;;;10.29;100.00;154001.81;5025449;28;20451;-76
2023/10/27 01:35:28;;;;;;;2.97;2.23;;;;;;;10.31;100.00;154007.00;5028008;28;20478;-76
2023/10/27 01:37:55;;;;;;;5.97;2.20;;;;;;;10.35;100.00;154017.38;5021750;28;20948;-76
2023/10/27 01:40:22;;;;;;;6.60;2.40;;;;;;;10.33;100.00;154013.47;5026199;28;20463;-76
2023/10/27 01:42:49;;;;;;;7.17;2.40;;;;;;;10.30;100.00;154004.38;5027135;28;20459;-77
2023/10/27 01:45:16;;;;;;;3.63;2.00;;;;;;;10.25;100.00;153991.44;4993374;28;20428;-77
2023/10/27 01:47:43;;;;;;;2.63;1.70;;;;;;;10.24;100.00;153990.19;5014347;28;21089;-77
2023/10/27 01:50:09;;;;;;;3.27;1.73;;;;;;;10.20;100.00;153978.50;5026412;28;20442;-77
2023/10/27 01:52:36;;;;;;;3.40;1.80;;;;;;;10.18;100.00;153973.34;5019947;28;20448;-76
2023/10/27 01:55:03;;;;;;;2.13;1.60;;;;;;;10.18;100.00;153974.63;5011625;28;20463;-76
2023/10/27 01:57:30;;;;;;;3.60;1.90;;;;;;;10.18;100.00;153974.63;5030546;28;21001;-77
2023/10/27 01:59:57;;;;;;;2.93;2.07;;;;;;;10.16;100.00;153968.16;4995214;28;20448;-76
2023/10/27 02:02:23;;;;;;;2.20;1.50;;;;;;;10.15;100.00;153965.56;5030470;28;20534;-77
2023/10/27 02:04:50;;;;;;;2.33;1.70;;;;;;;10.16;100.00;153968.16;5010415;28;20463;-77
2023/10/27 02:07:18;;;;;;;4.80;1.80;;;;;;;10.13;100.00;153960.41;5028992;28;20471;-77
2023/10/27 02:09:44;;;;;;;3.30;1.70;;;;;;;10.11;100.00;153956.44;5029779;28;20467;-77
2023/10/27 02:12:11;;;;;;;2.20;1.93;;;;;;;10.12;100.00;153959.09;5015304;28;20502;-76
2023/10/27 02:14:39;;;;;;;4.60;1.77;;;;;;;10.09;100.00;153951.25;5029301;28;20479;-76
2023/10/27 02:17:06;;;;;;;5.63;1.73;;;;;;;10.07;100.00;153944.81;5030694;28;20448;-76
2023/10/27 02:19:32;;;;;;;5.93;1.80;;;;;;;10.07;100.00;153946.09;5023692;28;20455;-76
2023/10/27 02:21:59;;;;;;;1.90;1.40;;;;;;;10.06;100.00;153943.50;5012233;28;20828;-76
2023/10/27 02:24:26;;;;;;;1.70;1.50;;;;;;;10.02;100.00;153931.88;5008826;28;20517;-77
2023/10/27 02:26:52;;;;;;;2.60;1.80;;;;;;;10.01;100.00;153929.25;5030143;28;20566;-77
2023/10/27 02:29:20;;;;;;;2.10;1.70;;;;;;;10.02;100.00;153931.88;5007759;28;20451;-76
2023/10/27 02:31:48;;;;;;;2.10;1.50;;;;;;;10.05;100.00;153939.63;5024931;28;20440;-77
2023/10/27 02:34:14;;;;;;;2.83;1.70;;;;;;;10.04;100.00;153937.03;4992025;28;20449;-77
2023/10/27 02:36:41;;;;;;;3.40;2.00;;;;;;;10.04;100.00;153937.03;5024068;28;20479;-77
2023/10/27 02:39:07;;;;;;;2.63;1.67;;;;;;;10.05;100.00;153939.63;5008422;28;20816;-77
2023/10/27 02:41:35;;;;;;;4.47;2.03;;;;;;;10.04;100.00;153937.03;5012618;28;20502;-77
2023/10/27 02:44:03;;;;;;;2.80;1.60;;;;;;;10.02;100.00;153931.88;5012342;28;20439;-77
2023/10/27 02:46:29;;;;;;;3.60;2.10;;;;;;;10.04;100.00;153938.34;5009903;28;20463;-77
2023/10/27 02:48:57;;;;;;;5.20;1.60;;;;;;;10.02;100.00;153931.88;5010940;28;20569;-77
2023/10/27 02:51:24;;;;;;;2.33;1.70;;;;;;;10.00;100.00;153928.00;5005516;28;20447;-77
2023/10/27 02:53:50;;;;;;;2.77;1.70;;;;;;;10.01;100.00;153929.25;5029443;28;20969;-77
2023/10/27 02:56:17;;;;;;;2.80;1.57;;;;;;;10.02;100.00;153931.88;5011529;28;20989;-77
2023/10/27 02:58:43;;;;;;;2.37;1.70;;;;;;;10.02;100.00;153933.16;5027773;28;20974;-77
2023/10/27 03:01:10;;;;;;;2.00;1.57;;;;;;;10.03;100.00;153934.47;5012346;28;20451;-77
2023/10/27 03:03:37;;;;;;;2.70;1.63;;;;;;;9.99;100.00;153924.09;5011094;28;20464;-77
2023/10/27 03:06:05;;;;;;;3.50;1.70;;;;;;;9.98;100.00;153921.53;5024856;28;20455;-77
2023/10/27 03:08:32;;;;;;;2.57;1.73;;;;;;;9.95;100.00;153913.75;5027714;28;20448;-77
2023/10/27 03:10:59;;;;;;;2.50;1.30;;;;;;;9.96;100.00;153916.31;5023235;28;21028;-77
2023/10/27 03:13:27;;;;;;;1.80;1.50;;;;;;;9.96;100.00;153916.31;5027988;28;20448;-77
2023/10/27 03:15:54;;;;;;;2.60;1.60;;;;;;;9.92;100.00;153906.00;5005584;28;20581;-76
2023/10/27 03:18:22;;;;;;;2.60;1.97;;;;;;;9.91;100.00;153903.38;5009885;28;20465;-77
2023/10/27 03:20:54;;;;;;;2.07;1.57;;;;;;;9.89;100.00;153899.53;4995502;28;20448;-77
2023/10/27 03:23:22;;;;;;;2.17;1.77;;;;;;;9.85;100.00;153889.16;5011194;28;20448;-77
2023/10/27 03:25:49;;;;;;;1.90;1.40;;;;;;;9.85;100.00;153889.16;5011945;28;20818;-77
2023/10/27 03:28:15;;;;;;;2.87;1.67;;;;;;;9.89;100.00;153898.22;5007965;28;20522;-77
2023/10/27 03:30:42;;;;;;;1.93;1.33;;;;;;;9.87;100.00;153893.06;5010282;28;20440;-77
2023/10/27 03:33:09;;;;;;;1.70;1.53;;;;;;;9.88;100.00;153896.91;5025237;28;20548;-77
2023/10/27 03:35:40;;;;;;;3.97;1.70;;;;;;;9.86;100.00;153891.75;5010650;28;20468;-78
2023/10/27 03:38:07;;;;;;;3.10;1.23;;;;;;;9.88;100.00;153895.59;5027374;28;20448;-77
2023/10/27 03:40:35;;;;;;;2.30;1.70;;;;;;;9.87;100.00;153894.34;5008297;28;20443;-77
2023/10/27 03:43:01;;;;;;;1.97;1.40;;;;;;;9.88;100.00;153895.59;5012894;28;20494;-77
2023/10/27 03:45:28;;;;;;;3.50;1.43;;;;;;;9.86;100.00;153891.75;5028278;28;20930;-77
2023/10/27 03:47:54;;;;;;;4.70;1.67;;;;;;;9.85;100.00;153887.88;5028746;28;20464;-77
2023/10/27 03:50:21;;;;;;;2.13;1.53;;;;;;;9.82;100.00;153881.41;5007046;28;20449;-77
2023/10/27 03:52:47;;;;;;;1.57;1.40;;;;;;;9.82;100.00;153882.69;5026177;28;20447;-77
2023/10/27 03:55:14;;;;;;;1.57;1.20;;;;;;;9.82;100.00;153882.69;5026938;28;20484;-77
2023/10/27 03:57:42;;;;;;;2.43;1.33;;;;;;;9.82;100.00;153882.69;5028222;28;20467;-77
2023/10/27 04:00:09;;;;;;;1.73;1.30;;;;;;;9.80;100.00;153877.50;5024226;28;20463;-77
2023/10/27 04:02:43;;;;;;;1.87;1.27;;;;;;;9.84;100.00;153885.28;5010115;28;20462;-76
2023/10/27 04:05:10;;;;;;;2.50;1.00;;;;;;;9.82;100.00;153880.13;5023147;28;20449;-77
2023/10/27 04:07:36;;;;;;;3.17;1.47;;;;;;;9.82;100.00;153880.13;5025904;28;20456;-76
2023/10/27 04:10:03;;;;;;;1.37;1.20;;;;;;;9.84;100.00;153886.59;5012586;28;20470;-77
2023/10/27 04:12:30;;;;;;;2.23;1.60;;;;;;;9.86;100.00;153890.44;5037935;28;20458;-77
2023/10/27 04:14:57;;;;;;;3.50;1.80;;;;;;;9.85;100.00;153887.88;5009206;28;20491;-77
2023/10/27 04:17:24;;;;;;;2.30;1.43;;;;;;;9.81;100.00;153878.81;5026042;28;20455;-77
2023/10/27 04:19:50;;;;;;;2.80;2.00;;;;;;;9.80;100.00;153877.50;5025628;28;20456;-76
2023/10/27 04:22:17;;;;;;;2.43;1.30;;;;;;;9.76;100.00;153867.19;5009567;28;20534;-77
2023/10/27 04:24:44;;;;;;;2.03;1.23;;;;;;;9.78;100.00;153872.34;5025647;28;20443;-77
2023/10/27 04:27:10;;;;;;;4.40;1.80;;;;;;;9.77;100.00;153869.75;5007757;28;20506;-77
2023/10/27 04:29:37;;;;;;;2.87;1.40;;;;;;;9.79;100.00;153874.91;5028222;28;20966;-76
2023/10/27 04:32:05;;;;;;;3.00;1.20;;;;;;;9.81;100.00;153878.81;5027696;28;20470;-76
2023/10/27 04:34:32;;;;;;;2.40;1.77;;;;;;;9.82;100.00;153880.13;5028110;28;20443;-78
2023/10/27 04:36:58;;;;;;;3.87;1.40;;;;;;;9.80;100.00;153876.22;5004093;28;20613;-77
2023/10/27 04:39:25;;;;;;;2.53;1.50;;;;;;;9.71;100.00;153852.94;5026121;28;20513;-77
2023/10/27 04:41:51;;;;;;;1.83;1.27;;;;;;;9.68;100.00;153846.47;5025714;28;20470;-77
2023/10/27 04:44:22;;;;;;;2.27;1.30;;;;;;;9.68;100.00;153845.16;5009293;28;20981;-76
2023/10/27 04:46:49;;;;;;;1.50;1.20;;;;;;;9.69;100.00;153849.03;5024377;28;20454;-76
2023/10/27 04:49:16;;;;;;;2.10;1.40;;;;;;;9.71;100.00;153852.94;5009510;28;20470;-75
2023/10/27 04:51:43;;;;;;;2.33;1.33;;;;;;;9.72;100.00;153856.81;5008921;28;20506;-76
2023/10/27 04:54:10;;;;;;;2.80;1.40;;;;;;;9.73;100.00;153858.09;5006558;28;20463;-76
2023/10/27 04:56:36;;;;;;;2.03;1.23;;;;;;;9.73;100.00;153859.41;5023944;28;20524;-75
2023/10/27 04:59:03;;;;;;;3.77;1.80;;;;;;;9.76;100.00;153867.19;5026284;28;20428;-76
2023/10/27 05:01:29;;;;;;;1.90;1.23;;;;;;;9.72;100.00;153856.81;4999541;28;20454;-76
2023/10/27 05:03:56;;;;;;;1.97;1.73;;;;;;;9.72;100.00;153856.81;5026384;28;20494;-76
2023/10/27 05:06:24;;;;;;;1.83;1.40;;;;;;;9.71;100.00;153852.94;5019524;28;20444;-75
2023/10/27 05:08:51;;;;;;;2.10;1.20;;;;;;;9.70;100.00;153851.63;5016591;28;20463;-76
2023/10/27 05:11:18;;;;;;;3.27;1.60;;;;;;;9.74;100.00;153861.97;5003259;28;21064;-76
2023/10/27 05:13:44;;;;;;;4.83;1.47;;;;;;;9.72;100.00;153855.50;5011818;28;20452;-76
2023/10/27 05:16:11;;;;;;;1.80;1.40;;;;;;;9.72;100.00;153856.81;5015629;28;20483;-76
2023/10/27 05:18:37;;;;;;;3.23;1.57;;;;;;;9.73;100.00;153859.41;5021494;28;20460;-76
2023/10/27 05:21:04;;;;;;;2.13;1.20;;;;;;;9.77;100.00;153869.75;5016283;28;20973;-76
2023/10/27 05:23:32;;;;;;;2.70;1.70;;;;;;;9.80;100.00;153877.50;5016201;28;20464;-76
2023/10/27 05:25:59;;;;;;;2.20;1.80;;;;;;;9.82;100.00;153882.69;4999315;28;20530;-76
2023/10/27 05:28:26;;;;;;;3.10;1.60;;;;;;;9.79;100.00;153874.91;5022501;28;20459;-75
2023/10/27 05:30:53;;;;;;;4.90;2.30;;;;;;;9.77;100.00;153869.75;5022531;28;20459;-76
2023/10/27 05:33:20;;;;;;;2.70;1.00;;;;;;;9.77;100.00;153869.75;5024930;28;20456;-76
2023/10/27 05:35:47;;;;;;;2.07;1.30;;;;;;;9.77;100.00;153869.75;5025260;28;20555;-76
2023/10/27 05:38:14;;;;;;;3.10;1.30;;;;;;;9.75;100.00;153863.28;5022821;28;20487;-76
2023/10/27 05:40:42;;;;;;;2.17;1.27;;;;;;;9.75;100.00;153864.56;5023818;28;20550;-75
2023/10/27 05:43:08;;;;;;;5.13;1.50;;;;;;;9.77;100.00;153868.44;5021045;28;20464;-76
2023/10/27 05:45:35;;;;;;;2.07;1.30;;;;;;;9.79;100.00;153874.91;5008205;28;20447;-75
2023/10/27 05:48:01;;;;;;;2.43;1.30;;;;;;;9.77;100.00;153868.44;5021093;28;20463;-76
2023/10/27 05:50:28;;;;;;;2.43;1.03;;;;;;;9.77;100.00;153869.75;5017682;28;20447;-76
2023/10/27 05:52:55;;;;;;;1.30;1.13;;;;;;;9.75;100.00;153863.28;5020168;28;21183;-75
2023/10/27 05:55:21;;;;;;;2.07;1.40;;;;;;;9.75;100.00;153864.56;5007542;28;21024;-75
2023/10/27 05:57:49;;;;;;;1.80;1.30;;;;;;;9.72;100.00;153856.81;5009083;28;20977;-75
2023/10/27 06:03:32;;;;;;;2.10;1.63;;;;;;;9.73;100.00;153858.09;4967738;28;21060;-76
2023/10/27 06:05:58;;;;;;;1.90;1.30;;;;;;;9.72;100.00;153855.50;5019299;28;20521;-76
2023/10/27 06:08:25;;;;;;;1.90;1.20;;;;;;;9.72;100.00;153856.81;5015703;28;20459;-76
2023/10/27 06:10:51;;;;;;;1.80;1.20;;;;;;;9.73;100.00;153858.09;5023449;28;20529;-76
2023/10/27 06:13:58;;;;;;;2.07;1.20;;;;;;;9.71;100.00;153854.25;5018066;28;20850;-76
2023/10/27 06:16:32;;;;;;;1.70;1.17;;;;;;;9.72;100.00;153856.81;5010361;28;20459;-76
2023/10/27 06:18:59;;;;;;;2.40;1.50;;;;;;;9.73;100.00;153858.09;5018448;28;20484;-76
2023/10/27 06:21:27;;;;;;;1.80;1.30;;;;;;;9.74;100.00;153861.97;5021022;28;20452;-76
2023/10/27 06:23:53;;;;;;;2.90;1.67;;;;;;;9.73;100.00;153859.41;5020594;28;20952;-76
2023/10/27 06:26:20;;;;;;;2.60;1.47;;;;;;;9.75;100.00;153863.28;5019257;28;20452;-76
2023/10/27 06:28:47;;;;;;;1.97;1.40;;;;;;;9.77;100.00;153869.75;5026579;28;20451;-77
2023/10/27 06:31:13;;;;;;;2.73;1.53;;;;;;;9.78;100.00;153872.34;5024398;28;21147;-76
2023/10/27 06:33:41;;;;;;;1.77;1.40;;;;;;;9.78;100.00;153872.34;5006005;28;20456;-76
2023/10/27 06:36:08;;;;;;;2.60;1.27;;;;;;;9.79;100.00;153874.91;5023207;28;20487;-76
2023/10/27 06:38:35;;;;;;;2.67;1.23;;;;;;;9.80;100.00;153877.50;5007184;28;20460;-76
2023/10/27 06:41:01;;;;;;;2.37;1.40;;;;;;;9.80;100.00;153876.22;5012547;28;20463;-75
2023/10/27 06:43:28;;;;;;;2.70;1.70;;;;;;;9.82;100.00;153880.13;5021260;28;20464;-75
2023/10/27 06:45:54;;;;;;;1.77;1.37;;;;;;;9.82;100.00;153882.69;4999403;28;20453;-75
2023/10/27 06:48:21;;;;;;;2.57;1.47;;;;;;;9.79;100.00;153874.91;5004824;28;20600;-75
2023/10/27 06:50:49;;;;;;;2.23;1.47;;;;;;;9.79;100.00;153874.91;5013547;28;20474;-75
2023/10/27 06:53:15;;;;;;;2.13;1.50;;;;;;;9.84;100.00;153885.28;5022831;28;21109;-75
2023/10/27 06:55:42;;;;;;;2.20;1.63;;;;;;;9.87;100.00;153894.34;5023695;28;20483;-75
2023/10/27 06:58:08;;;;;;;2.47;1.53;;;;;;;9.90;100.00;153902.06;5006543;28;20451;-75
2023/10/27 07:00:35;;;;;;;2.23;1.30;;;;;;;9.92;100.00;153907.28;5022932;28;21032;-75
2023/10/27 07:03:02;;;;;;;1.80;1.40;;;;;;;9.96;100.00;153916.31;5007477;28;20553;-76
2023/10/27 07:05:29;;;;;;;2.20;1.57;;;;;;;9.97;100.00;153918.91;5006556;28;20460;-76
2023/10/27 07:07:57;;;;;;;2.33;1.53;;;;;;;9.97;100.00;153918.91;5019176;28;20508;-76
2023/10/27 07:10:24;;;;;;;1.83;1.27;;;;;;;9.99;100.00;153924.09;5014357;28;20487;-76
2023/10/27 07:12:50;;;;;;;1.57;1.20;;;;;;;10.01;100.00;153929.25;5011986;28;20456;-76
2023/10/27 07:15:19;;;;;;;1.93;1.13;;;;;;;10.03;100.00;153934.47;5030377;28;20496;-76
2023/10/27 07:17:45;;;;;;;3.97;1.03;;;;;;;10.06;100.00;153943.50;5019231;28;20570;-75
2023/10/27 07:20:12;;;;;;;1.63;1.20;;;;;;;10.07;100.00;153946.09;5023355;28;20501;-75
2023/10/27 07:22:39;;;;;;;2.10;1.20;;;;;;;10.08;100.00;153947.41;5016201;28;20452;-75
2023/10/27 07:25:07;;;;;;;1.47;1.07;;;;;;;10.11;100.00;153955.19;5020916;28;20467;-75
2023/10/27 07:27:34;;;;;;;1.50;1.30;;;;;;;10.12;100.00;153957.72;5000471;28;20456;-76
2023/10/27 07:30:01;;;;;;;2.40;1.17;;;;;;;10.15;100.00;153966.88;5019016;28;20457;-75
2023/10/27 07:32:27;;;;;;;3.17;1.40;;;;;;;10.16;100.00;153969.47;5018814;28;20456;-76
2023/10/27 07:34:54;;;;;;;2.00;1.23;;;;;;;10.19;100.00;153975.94;5019073;28;20465;-76
2023/10/27 07:37:23;;;;;;;1.10;0.77;;;;;;;10.21;100.00;153982.41;5021341;28;20806;-75
2023/10/27 07:39:49;;;;;;;2.10;1.47;;;;;;;10.22;100.00;153983.66;4980023;28;20550;-76
2023/10/27 07:42:17;;;;;;;1.67;1.10;;;;;;;10.23;100.00;153986.28;5006714;28;21018;-75
2023/10/27 07:44:46;;;;;;;1.80;1.13;;;;;;;10.26;100.00;153994.03;5015557;28;20537;-76
2023/10/27 07:47:14;;;;;;;1.57;1.00;;;;;;;10.26;100.00;153995.34;5019458;28;20786;-76
2023/10/27 07:49:40;;;;;;;1.40;1.00;;;;;;;10.30;100.00;154004.38;5023602;28;20448;-76
2023/10/27 07:52:07;;;;;;;1.50;1.10;;;;;;;10.34;100.00;154014.75;5019300;28;20455;-75
2023/10/27 07:54:34;;;;;;;3.30;1.00;;;;;;;10.33;100.00;154013.47;5018263;28;20456;-76
2023/10/27 07:57:00;;;;;;;1.03;0.80;;;;;;;10.37;100.00;154022.53;5019056;28;20578;-76
2023/10/27 07:59:28;;;;;;;1.50;0.97;;;;;;;10.37;100.00;154022.53;5017128;28;20459;-75
2023/10/27 08:01:57;;;;;;;2.00;0.87;;;;;;;10.38;100.00;154025.09;4999141;28;20453;-76
2023/10/27 08:04:24;;;;;;;1.13;0.73;;;;;;;10.40;100.00;154030.31;5023368;28;20814;-75
2023/10/27 08:06:51;;;;;;;1.00;0.60;;;;;;;10.38;100.00;154026.41;5020686;28;20453;-76
2023/10/27 08:09:18;;;;;;;1.00;0.60;;;;;;;10.39;100.00;154029.00;5001900;28;20477;-76
2023/10/27 08:11:44;;;;;;;1.13;0.63;;;;;;;10.39;100.00;154027.69;5010524;28;20452;-76
2023/10/27 08:14:11;;;;;;;1.00;0.50;;;;;;;10.43;100.00;154036.78;5005743;28;20459;-75
2023/10/27 08:16:39;;;;;;;1.03;0.40;;;;;;;10.43;100.00;154038.09;5018428;28;20516;-75
2023/10/27 08:19:05;;;;;;;3.73;1.30;;;;;;;10.46;100.00;154044.56;5018570;28;20603;-76
2023/10/27 08:21:32;;;;;;;1.67;0.80;;;;;;;10.47;100.00;154047.13;5018089;28;20447;-76
2023/10/27 08:23:59;;;;;;;1.80;1.00;;;;;;;10.48;100.00;154051.03;5014030;28;20514;-75
2023/10/27 08:26:25;;;;;;;1.33;0.70;;;;;;;10.49;100.00;154052.28;5019586;28;20452;-75
2023/10/27 08:28:52;;;;;;;1.20;0.67;;;;;;;10.52;100.00;154060.06;5019592;28;20521;-75
2023/10/27 08:31:18;;;;;;;1.10;0.60;;;;;;;10.56;100.00;154070.44;5020357;28;20452;-76
2023/10/27 08:33:46;;;;;;;1.33;0.67;;;;;;;10.59;100.00;154079.47;5018302;28;20459;-75
2023/10/27 08:36:14;;;;;;;0.80;0.50;;;;;;;10.62;100.00;154087.25;5006669;28;20877;-75
2023/10/27 08:38:41;;;;;;;1.17;0.63;;;;;;;10.64;100.00;154092.47;5020592;28;20969;-76
2023/10/27 08:41:08;;;;;;;1.00;0.63;;;;;;;10.69;100.00;154105.41;4999297;28;20462;-75
2023/10/27 08:43:35;;;;;;;1.93;0.67;;;;;;;10.71;100.00;154110.56;5019681;28;20452;-75
2023/10/27 08:46:03;;;;;;;1.10;0.50;;;;;;;10.73;100.00;154115.75;5022799;28;20456;-75
2023/10/27 08:48:30;;;;;;;1.13;0.57;;;;;;;10.73;100.00;154115.75;5003439;28;20543;-75
2023/10/27 08:51:04;;;;;;;1.70;0.70;;;;;;;10.73;100.00;154115.75;5012179;28;20470;-75
2023/10/27 08:53:30;;;;;;;1.00;0.50;;;;;;;10.73;100.00;154114.44;5021604;28;20440;-75
2023/10/27 08:55:57;;;;;;;1.00;0.40;;;;;;;10.71;100.00;154110.56;5018155;28;20518;-75
2023/10/27 08:58:24;;;;;;;1.17;0.50;;;;;;;10.67;100.00;154100.19;5017466;28;20525;-76
2023/10/27 09:00:50;;;;;;;1.80;0.50;;;;;;;10.64;100.00;154092.47;5018582;28;21207;-75
2023/10/27 09:03:18;;;;;;;0.93;0.40;;;;;;;10.65;100.00;154095.03;5021088;28;20460;-76
2023/10/27 09:05:44;;;;;;;1.03;0.53;;;;;;;10.66;100.00;154097.63;5021566;28;20458;-75
2023/10/27 09:08:12;;;;;;;0.90;0.40;;;;;;;10.69;100.00;154104.09;5022088;28;20505;-75
2023/10/27 09:10:39;;;;;;;1.67;0.40;;;;;;;10.69;100.00;154105.41;5023978;28;20463;-76
2023/10/27 09:13:06;;;;;;;1.00;0.37;;;;;;;10.69;100.00;154104.09;5023392;28;20980;-75
2023/10/27 09:15:44;;;;;;;0.80;0.30;;;;;;;10.69;100.00;154105.41;5022886;28;20530;-75
2023/10/27 09:18:10;;;;;;;1.07;0.50;;;;;;;10.69;100.00;154105.41;5021820;28;21001;-75
2023/10/27 09:20:47;;;;;;;0.80;0.30;;;;;;;10.70;100.00;154107.97;5019308;28;20451;-76
2023/10/27 09:23:14;;;;;;;0.93;0.50;;;;;;;10.73;100.00;154114.44;5022926;28;20849;-75
2023/10/27 09:25:41;;;;;;;0.90;0.40;;;;;;;10.72;100.00;154113.13;5025287;28;20554;-76
2023/10/27 09:28:08;;;;;;;0.90;0.40;;;;;;;10.76;100.00;154122.22;5002854;28;20447;-75
2023/10/27 09:30:37;;;;;;;1.60;0.70;;;;;;;10.75;100.00;154120.91;4984911;28;20966;-75
2023/10/27 09:33:16;;;;;;;1.03;0.53;;;;;;;10.78;100.00;154128.69;5021753;28;20448;-76
2023/10/27 09:35:44;;;;;;;4.13;1.70;;;;;;;10.83;100.00;154141.63;5023212;28;20452;-76
2023/10/27 09:38:12;;;;;;;4.10;2.63;;;;;;;10.85;100.00;154145.53;5021917;28;21106;-75
2023/10/27 09:40:41;;;;;;;6.03;4.33;;;;;;;10.87;100.00;154150.72;5002705;28;20464;-75
2023/10/27 09:43:08;;;;;;;8.10;6.73;;;;;;;10.91;100.00;154161.06;5009494;28;20577;-76
2023/10/27 09:45:36;;;;;;;2.10;1.70;;;;;;;10.93;100.00;154167.53;5024924;28;20468;-75
2023/10/27 09:48:06;;;;;;;2.20;1.57;;;;;;;10.99;100.00;154183.09;5018493;28;20440;-75
2023/10/27 09:50:32;;;;;;;2.40;2.10;;;;;;;11.11;100.00;154211.59;5020047;28;20487;-76
2023/10/27 09:53:02;;;;;;;1.67;1.27;;;;;;;11.19;100.00;154232.31;5021393;28;20510;-75
2023/10/27 09:55:30;;;;;;;1.57;1.00;;;;;;;11.26;100.00;154251.75;5000370;28;20809;-75
2023/10/27 09:58:00;;;;;;;2.57;1.40;;;;;;;11.30;100.00;154260.81;4991213;28;20955;-75
2023/10/27 10:00:28;;;;;;;1.50;1.10;;;;;;;11.28;100.00;154255.66;5019947;28;20834;-76
2023/10/27 10:02:56;;;;;;;1.80;0.93;;;;;;;11.25;100.00;154249.13;5024301;28;20445;-75
2023/10/27 10:05:23;;;;;;;2.33;1.40;;;;;;;11.25;100.00;154247.88;5024388;28;21034;-75
2023/10/27 10:07:54;;;;;;;1.57;1.20;;;;;;;11.23;100.00;154242.66;5008796;28;20477;-75
2023/10/27 10:10:29;;;;;;;2.30;0.93;;;;;;;11.25;100.00;154247.88;5022119;28;20455;-76
2023/10/27 10:13:04;;;;;;;2.97;1.27;;;;;;;11.28;100.00;154255.66;5020056;28;21140;-75
2023/10/27 10:15:32;;;;;;;2.43;1.20;;;;;;;11.34;100.00;154271.16;5003552;28;20838;-76
2023/10/27 10:17:58;;;;;;;1.90;1.37;;;;;;;11.39;100.00;154285.41;5020708;28;20551;-75
2023/10/27 10:20:56;;;;;;;3.03;1.17;;;;;;;11.48;100.00;154307.47;5019410;28;20455;-75
2023/10/27 10:23:24;;;;;;;1.63;1.07;;;;;;;11.52;100.00;154317.81;5024244;28;20451;-75
2023/10/27 10:25:52;;;;;;;1.83;1.10;;;;;;;11.55;100.00;154325.59;5008672;28;20459;-76
2023/10/27 10:28:27;;;;;;;2.60;1.30;;;;;;;11.53;100.00;154320.41;5003283;28;20538;-76
2023/10/27 10:31:24;;;;;;;1.93;0.97;;;;;;;11.54;100.00;154323.03;5020345;28;20439;-75
2023/10/27 10:33:51;;;;;;;2.10;1.80;;;;;;;11.56;100.00;154328.19;4969337;28;20595;-76
2023/10/27 10:36:26;;;;;;;2.20;1.77;;;;;;;11.57;100.00;154330.75;5007992;28;20445;-76
2023/10/27 10:38:57;;;;;;;1.77;1.40;;;;;;;11.64;100.00;154348.94;5016745;28;20521;-76
2023/10/27 10:41:59;;;;;;;3.10;1.17;;;;;;;11.72;100.00;154368.41;5022432;28;20849;-76
2023/10/27 10:44:30;;;;;;;3.70;1.17;;;;;;;11.69;100.00;154361.94;5016624;28;20447;-76
2023/10/27 10:47:00;;;;;;;1.90;1.13;;;;;;;11.67;100.00;154356.72;5023354;28;20498;-75
2023/10/27 10:49:28;;;;;;;3.83;1.33;;;;;;;11.66;100.00;154354.09;5020748;28;20445;-76
2023/10/27 10:51:55;;;;;;;2.60;1.10;;;;;;;11.67;100.00;154356.72;5018978;28;20854;-76
2023/10/27 10:54:26;;;;;;;2.13;1.10;;;;;;;11.67;100.00;154355.41;5023679;28;20505;-76
2023/10/27 10:57:03;;;;;;;3.90;1.20;;;;;;;11.68;100.00;154357.97;5017962;28;20534;-76
2023/10/27 10:59:31;;;;;;;6.43;1.40;;;;;;;11.71;100.00;154367.09;5000993;28;20902;-76
2023/10/27 11:01:58;;;;;;;2.33;1.17;;;;;;;11.69;100.00;154361.94;5019203;28;20514;-76
2023/10/27 11:04:29;;;;;;;1.47;1.10;;;;;;;11.70;100.00;154364.53;5009163;28;20466;-75
2023/10/27 11:06:59;;;;;;;3.00;1.07;;;;;;;11.72;100.00;154369.72;5017920;28;21029;-76
2023/10/27 11:09:25;;;;;;;1.80;1.20;;;;;;;11.75;100.00;154377.50;5018988;28;20554;-76
2023/10/27 11:11:54;;;;;;;3.90;1.37;;;;;;;11.73;100.00;154371.03;5020240;28;20553;-76
2023/10/27 11:14:21;;;;;;;2.53;0.93;;;;;;;11.74;100.00;154374.88;5019105;28;20489;-76
2023/10/27 11:16:57;;;;;;;1.43;1.00;;;;;;;11.76;100.00;154378.75;5023357;28;20443;-76
2023/10/27 11:19:23;;;;;;;1.60;1.10;;;;;;;11.74;100.00;154373.59;5018551;28;20455;-75
2023/10/27 11:21:52;;;;;;;1.93;1.30;;;;;;;11.75;100.00;154376.19;5018208;28;20460;-76
2023/10/27 11:24:18;;;;;;;3.97;1.33;;;;;;;11.76;100.00;154380.06;5017327;28;20573;-76
2023/10/27 11:26:45;;;;;;;3.33;1.03;;;;;;;11.78;100.00;154385.22;5018800;28;20952;-76